sensor_id;sensor_type;location;lat;lon;timestamp;P1;durP1;ratioP1;P2;durP2;ratioP2
20185;SDS011;10252;48.792;8.582;2022-07-25T00:04:00;11.27;;;10.05;;
20185;SDS011;10252;48.792;8.582;2022-07-25T00:09:02;11.95;;;10.77;;
20185;SDS011;10252;48.792;8.582;2022-07-25T00:14:03;12.55;;;11.25;;
20185;SDS011;10252;48.792;8.582;2022-07-25T00:19:04;12.48;;;10.70;;
20185;SDS011;10252;48.792;8.582;2022-07-25T00:24:06;11.57;;;10.48;;
20185;SDS011;10252;48.792;8.582;2022-07-25T00:29:07;11.68;;;10.50;;
20185;SDS011;10252;48.792;8.582;2022-07-25T00:34:08;12.25;;;11.02;;
20185;SDS011;10252;48.792;8.582;2022-07-25T00:39:09;12.25;;;10.65;;
20185;SDS011;10252;48.792;8.582;2022-07-25T00:44:20;11.57;;;10.48;;
20185;SDS011;10252;48.792;8.582;2022-07-25T00:49:21;12.25;;;11.02;;
20185;SDS011;10252;48.792;8.582;2022-07-25T00:54:23;11.52;;;10.43;;
20185;SDS011;10252;48.792;8.582;2022-07-25T00:59:24;12.63;;;11.32;;
20185;SDS011;10252;48.792;8.582;2022-07-25T01:04:25;12.38;;;11.18;;
20185;SDS011;10252;48.792;8.582;2022-07-25T01:09:26;13.02;;;11.70;;
20185;SDS011;10252;48.792;8.582;2022-07-25T01:14:28;12.70;;;11.40;;
20185;SDS011;10252;48.792;8.582;2022-07-25T01:19:29;12.15;;;10.95;;
20185;SDS011;10252;48.792;8.582;2022-07-25T01:24:30;12.15;;;10.95;;
20185;SDS011;10252;48.792;8.582;2022-07-25T01:29:31;12.75;;;11.55;;
20185;SDS011;10252;48.792;8.582;2022-07-25T01:34:32;13.30;;;11.60;;
20185;SDS011;10252;48.792;8.582;2022-07-25T01:39:33;12.95;;;11.52;;
20185;SDS011;10252;48.792;8.582;2022-07-25T01:44:34;12.50;;;11.18;;
20185;SDS011;10252;48.792;8.582;2022-07-25T01:49:35;14.05;;;11.85;;
20185;SDS011;10252;48.792;8.582;2022-07-25T01:54:36;13.80;;;12.32;;
20185;SDS011;10252;48.792;8.582;2022-07-25T01:59:38;12.50;;;11.25;;
20185;SDS011;10252;48.792;8.582;2022-07-25T02:04:39;15.80;;;13.60;;
20185;SDS011;10252;48.792;8.582;2022-07-25T02:09:40;12.77;;;11.43;;
20185;SDS011;10252;48.792;8.582;2022-07-25T02:14:42;13.68;;;12.27;;
20185;SDS011;10252;48.792;8.582;2022-07-25T02:19:43;14.30;;;12.48;;
20185;SDS011;10252;48.792;8.582;2022-07-25T02:24:44;13.93;;;12.55;;
20185;SDS011;10252;48.792;8.582;2022-07-25T02:29:45;14.73;;;12.27;;
20185;SDS011;10252;48.792;8.582;2022-07-25T02:34:46;13.52;;;12.15;;
20185;SDS011;10252;48.792;8.582;2022-07-25T02:39:47;13.88;;;12.45;;
20185;SDS011;10252;48.792;8.582;2022-07-25T02:44:48;14.57;;;13.10;;
20185;SDS011;10252;48.792;8.582;2022-07-25T02:49:49;15.35;;;13.02;;
20185;SDS011;10252;48.792;8.582;2022-07-25T02:54:50;14.13;;;12.73;;
20185;SDS011;10252;48.792;8.582;2022-07-25T02:59:51;14.52;;;12.70;;
20185;SDS011;10252;48.792;8.582;2022-07-25T03:04:52;14.70;;;13.13;;
20185;SDS011;10252;48.792;8.582;2022-07-25T03:09:53;13.85;;;12.23;;
20185;SDS011;10252;48.792;8.582;2022-07-25T03:14:55;14.68;;;13.18;;
20185;SDS011;10252;48.792;8.582;2022-07-25T03:19:56;14.38;;;12.77;;
20185;SDS011;10252;48.792;8.582;2022-07-25T03:24:57;14.98;;;13.52;;
20185;SDS011;10252;48.792;8.582;2022-07-25T03:29:58;14.80;;;13.23;;
20185;SDS011;10252;48.792;8.582;2022-07-25T03:34:59;14.63;;;13.20;;
20185;SDS011;10252;48.792;8.582;2022-07-25T03:40:00;14.20;;;12.80;;
20185;SDS011;10252;48.792;8.582;2022-07-25T03:45:02;14.57;;;13.13;;
20185;SDS011;10252;48.792;8.582;2022-07-25T03:50:03;15.18;;;13.73;;
20185;SDS011;10252;48.792;8.582;2022-07-25T03:55:05;18.67;;;14.95;;
20185;SDS011;10252;48.792;8.582;2022-07-25T04:00:07;16.98;;;14.18;;
20185;SDS011;10252;48.792;8.582;2022-07-25T04:05:09;17.08;;;13.45;;
20185;SDS011;10252;48.792;8.582;2022-07-25T04:10:10;15.88;;;13.15;;
20185;SDS011;10252;48.792;8.582;2022-07-25T04:15:11;14.95;;;12.68;;
20185;SDS011;10252;48.792;8.582;2022-07-25T04:20:12;13.73;;;12.30;;
20185;SDS011;10252;48.792;8.582;2022-07-25T04:25:13;14.18;;;12.68;;
20185;SDS011;10252;48.792;8.582;2022-07-25T04:30:15;14.43;;;12.30;;
20185;SDS011;10252;48.792;8.582;2022-07-25T04:35:16;14.48;;;12.95;;
20185;SDS011;10252;48.792;8.582;2022-07-25T04:40:17;15.55;;;13.23;;
20185;SDS011;10252;48.792;8.582;2022-07-25T04:45:18;13.23;;;11.95;;
20185;SDS011;10252;48.792;8.582;2022-07-25T04:50:19;14.63;;;12.98;;
20185;SDS011;10252;48.792;8.582;2022-07-25T04:55:20;13.50;;;11.90;;
20185;SDS011;10252;48.792;8.582;2022-07-25T05:00:22;13.70;;;12.30;;
20185;SDS011;10252;48.792;8.582;2022-07-25T05:05:23;13.88;;;12.48;;
20185;SDS011;10252;48.792;8.582;2022-07-25T05:10:24;12.95;;;11.65;;
20185;SDS011;10252;48.792;8.582;2022-07-25T05:15:26;14.25;;;12.85;;
20185;SDS011;10252;48.792;8.582;2022-07-25T05:20:27;14.30;;;12.73;;
20185;SDS011;10252;48.792;8.582;2022-07-25T05:25:28;13.50;;;12.07;;
20185;SDS011;10252;48.792;8.582;2022-07-25T05:30:29;13.55;;;12.20;;
20185;SDS011;10252;48.792;8.582;2022-07-25T05:35:30;13.60;;;11.43;;
20185;SDS011;10252;48.792;8.582;2022-07-25T05:40:31;13.02;;;11.63;;
20185;SDS011;10252;48.792;8.582;2022-07-25T05:45:32;13.43;;;11.25;;
20185;SDS011;10252;48.792;8.582;2022-07-25T05:50:35;13.43;;;12.02;;
20185;SDS011;10252;48.792;8.582;2022-07-25T05:55:36;12.48;;;10.75;;
20185;SDS011;10252;48.792;8.582;2022-07-25T06:00:37;13.05;;;11.10;;
20185;SDS011;10252;48.792;8.582;2022-07-25T06:05:39;12.05;;;10.77;;
20185;SDS011;10252;48.792;8.582;2022-07-25T06:10:40;12.30;;;11.10;;
20185;SDS011;10252;48.792;8.582;2022-07-25T06:15:41;11.38;;;10.20;;
20185;SDS011;10252;48.792;8.582;2022-07-25T06:20:43;11.60;;;10.30;;
20185;SDS011;10252;48.792;8.582;2022-07-25T06:25:44;11.68;;;10.38;;
20185;SDS011;10252;48.792;8.582;2022-07-25T06:30:46;9.93;;;8.60;;
20185;SDS011;10252;48.792;8.582;2022-07-25T06:35:47;12.52;;;10.27;;
20185;SDS011;10252;48.792;8.582;2022-07-25T06:40:48;10.93;;;9.80;;
20185;SDS011;10252;48.792;8.582;2022-07-25T06:45:49;10.38;;;9.48;;
20185;SDS011;10252;48.792;8.582;2022-07-25T06:50:50;10.75;;;9.75;;
20185;SDS011;10252;48.792;8.582;2022-07-25T06:55:51;10.18;;;9.05;;
20185;SDS011;10252;48.792;8.582;2022-07-25T07:00:53;9.70;;;8.80;;
20185;SDS011;10252;48.792;8.582;2022-07-25T07:05:54;9.20;;;8.40;;
20185;SDS011;10252;48.792;8.582;2022-07-25T07:10:55;9.63;;;8.73;;
20185;SDS011;10252;48.792;8.582;2022-07-25T07:15:56;10.45;;;9.35;;
20185;SDS011;10252;48.792;8.582;2022-07-25T07:20:57;9.95;;;8.90;;
20185;SDS011;10252;48.792;8.582;2022-07-25T07:25:58;9.80;;;9.00;;
20185;SDS011;10252;48.792;8.582;2022-07-25T07:30:59;9.40;;;8.65;;
20185;SDS011;10252;48.792;8.582;2022-07-25T07:36:00;9.73;;;8.57;;
20185;SDS011;10252;48.792;8.582;2022-07-25T07:41:01;10.82;;;9.90;;
20185;SDS011;10252;48.792;8.582;2022-07-25T07:46:03;10.52;;;9.43;;
20185;SDS011;10252;48.792;8.582;2022-07-25T07:51:04;8.93;;;8.13;;
20185;SDS011;10252;48.792;8.582;2022-07-25T07:56:05;8.35;;;7.65;;
20185;SDS011;10252;48.792;8.582;2022-07-25T08:01:06;9.00;;;8.20;;
20185;SDS011;10252;48.792;8.582;2022-07-25T08:06:07;8.60;;;7.80;;
20185;SDS011;10252;48.792;8.582;2022-07-25T08:11:08;8.60;;;7.70;;
20185;SDS011;10252;48.792;8.582;2022-07-25T08:16:10;8.20;;;7.50;;
20185;SDS011;10252;48.792;8.582;2022-07-25T08:21:12;7.75;;;7.03;;
20185;SDS011;10252;48.792;8.582;2022-07-25T08:26:13;8.07;;;6.90;;
20185;SDS011;10252;48.792;8.582;2022-07-25T08:31:14;7.72;;;7.03;;
20185;SDS011;10252;48.792;8.582;2022-07-25T08:36:16;7.95;;;7.25;;
20185;SDS011;10252;48.792;8.582;2022-07-25T08:41:17;8.38;;;7.65;;
20185;SDS011;10252;48.792;8.582;2022-07-25T08:46:18;7.63;;;7.03;;
20185;SDS011;10252;48.792;8.582;2022-07-25T08:51:19;7.25;;;6.65;;
20185;SDS011;10252;48.792;8.582;2022-07-25T08:56:21;10.45;;;6.45;;
20185;SDS011;10252;48.792;8.582;2022-07-25T09:01:22;6.60;;;5.93;;
20185;SDS011;10252;48.792;8.582;2022-07-25T09:06:23;8.30;;;7.60;;
20185;SDS011;10252;48.792;8.582;2022-07-25T09:11:25;7.53;;;6.82;;
